BAW28F KLAX-EGLL
Flight info
| Callsign | BAW28F |
|---|---|
| Flight time | N/A |
| Altitude | 35000 |
| Route | OSHNN1 BEALE Q842 WINEN DCT KU60O DCT KU03S DCT KATEN/N0492F370 DCT DURUR DCT YTH Q827 YYQ DCT 61N090W 64N080W 6630N07000W/M083F390 DCT DARUB DCT 68N050W 68N040W 67N030W 6430N02000W DCT BALIX/N0469F390 DCT NINEX/N0476F410 DCT AKOMU DCT VAMEB DCT NUGRA |
| Aircraft | B772/H-SDE2E3FGHIJ5LORVWXY/LB1D1 |
Departure
| Time | 2026-04-24 19:58 |
|---|---|
| Airport | Los Angeles International Airport (KLAX) |
Arrival
| Time | N/A |
|---|---|
| Airport | London Heathrow Airport (EGLL) |
| Time | Latitude | Longitude | Altitude | Speed | Heading |
|---|---|---|---|---|---|
| 2026-04-24 18:54 | 33.94087 | -118.40947 | 97 ft | 0 kts | 263° |
| 2026-04-24 19:39 | 33.94088 | -118.40936 | 98 ft | 4 kts | 263° |
| 2026-04-24 19:40 | 33.94091 | -118.40909 | 99 ft | 2 kts | 262° |
| 2026-04-24 19:40 | 33.94096 | -118.40879 | 97 ft | 4 kts | 245° |
| 2026-04-24 19:40 | 33.94111 | -118.40853 | 97 ft | 4 kts | 218° |
| 2026-04-24 19:40 | 33.94133 | -118.40842 | 98 ft | 3 kts | 173° |
| 2026-04-24 19:41 | 33.94122 | -118.40840 | 97 ft | 4 kts | 173° |
| 2026-04-24 19:41 | 33.94096 | -118.40836 | 100 ft | 4 kts | 173° |
| 2026-04-24 19:41 | 33.94069 | -118.40832 | 100 ft | 4 kts | 173° |
| 2026-04-24 19:41 | 33.94042 | -118.40828 | 99 ft | 4 kts | 173° |
| 2026-04-24 19:42 | 33.94015 | -118.40824 | 99 ft | 4 kts | 173° |
| 2026-04-24 19:42 | 33.94003 | -118.40823 | 97 ft | 0 kts | 173° |
| 2026-04-24 19:45 | 33.93995 | -118.40822 | 99 ft | 4 kts | 173° |
| 2026-04-24 19:45 | 33.93961 | -118.40817 | 98 ft | 5 kts | 173° |
| 2026-04-24 19:45 | 33.93927 | -118.40810 | 99 ft | 5 kts | 166° |
| 2026-04-24 19:45 | 33.93898 | -118.40788 | 97 ft | 5 kts | 135° |
| 2026-04-24 19:46 | 33.93881 | -118.40765 | 98 ft | 5 kts | 137° |
| 2026-04-24 19:46 | 33.93874 | -118.40760 | 98 ft | 5 kts | 143° |
| 2026-04-24 19:46 | 33.93842 | -118.40738 | 101 ft | 6 kts | 149° |
| 2026-04-24 19:46 | 33.93817 | -118.40695 | 99 ft | 6 kts | 105° |
| 2026-04-24 19:47 | 33.93815 | -118.40639 | 100 ft | 8 kts | 87° |
| 2026-04-24 19:47 | 33.93821 | -118.40569 | 99 ft | 8 kts | 83° |
| 2026-04-24 19:47 | 33.93827 | -118.40500 | 100 ft | 8 kts | 84° |
| 2026-04-24 19:47 | 33.93834 | -118.40430 | 100 ft | 8 kts | 83° |
| 2026-04-24 19:48 | 33.93842 | -118.40361 | 100 ft | 8 kts | 83° |
| 2026-04-24 19:48 | 33.93849 | -118.40293 | 100 ft | 8 kts | 83° |
| 2026-04-24 19:48 | 33.93862 | -118.40159 | 103 ft | 8 kts | 83° |
| 2026-04-24 19:49 | 33.93869 | -118.40090 | 100 ft | 0 kts | 83° |
| 2026-04-24 19:53 | 33.93870 | -118.40079 | 102 ft | 5 kts | 83° |
| 2026-04-24 19:53 | 33.93879 | -118.40001 | 101 ft | 12 kts | 83° |
| 2026-04-24 19:53 | 33.93905 | -118.39741 | 99 ft | 16 kts | 83° |
| 2026-04-24 19:54 | 33.93919 | -118.39604 | 99 ft | 16 kts | 83° |
| 2026-04-24 19:54 | 33.93933 | -118.39467 | 100 ft | 16 kts | 83° |
| 2026-04-24 19:54 | 33.93947 | -118.39331 | 98 ft | 16 kts | 83° |
| 2026-04-24 19:54 | 33.93961 | -118.39194 | 99 ft | 16 kts | 83° |
| 2026-04-24 19:55 | 33.93971 | -118.39104 | 99 ft | 16 kts | 83° |
| 2026-04-24 19:55 | 33.93989 | -118.38923 | 98 ft | 16 kts | 83° |
| 2026-04-24 19:55 | 33.94002 | -118.38786 | 100 ft | 16 kts | 83° |
| 2026-04-24 19:55 | 33.94017 | -118.38650 | 100 ft | 16 kts | 84° |
| 2026-04-24 19:56 | 33.94030 | -118.38513 | 100 ft | 16 kts | 83° |
| 2026-04-24 19:56 | 33.94045 | -118.38376 | 100 ft | 16 kts | 83° |
| 2026-04-24 19:56 | 33.94059 | -118.38240 | 99 ft | 16 kts | 82° |
| 2026-04-24 19:56 | 33.94071 | -118.38113 | 98 ft | 10 kts | 83° |
| 2026-04-24 19:57 | 33.94077 | -118.38050 | 97 ft | 7 kts | 93° |
| 2026-04-24 19:57 | 33.94047 | -118.38004 | 98 ft | 7 kts | 154° |
| 2026-04-24 19:57 | 33.93997 | -118.38001 | 99 ft | 7 kts | 200° |
| 2026-04-24 19:57 | 33.93979 | -118.38055 | 98 ft | 7 kts | 264° |
| 2026-04-24 19:58 | 33.93965 | -118.38210 | 103 ft | 41 kts | 263° |
| 2026-04-24 19:58 | 33.93897 | -118.38856 | 102 ft | 116 kts | 263° |
| 2026-04-24 19:58 | 33.93770 | -118.40112 | 112 ft | 182 kts | 262° |
| 2026-04-24 19:58 | 33.93617 | -118.41666 | 846 ft | 189 kts | 259° |
| 2026-04-24 19:59 | 33.93451 | -118.43233 | 1903 ft | 182 kts | 259° |
| 2026-04-24 19:59 | 33.93292 | -118.44760 | 2642 ft | 189 kts | 259° |
| 2026-04-24 19:59 | 33.93116 | -118.46366 | 3130 ft | 199 kts | 254° |
| 2026-04-24 19:59 | 33.92376 | -118.47854 | 3234 ft | 220 kts | 221° |
| 2026-04-24 20:00 | 33.91202 | -118.49113 | 3626 ft | 234 kts | 221° |
| 2026-04-24 20:00 | 33.90005 | -118.50575 | 3966 ft | 252 kts | 228° |
| 2026-04-24 20:00 | 33.88864 | -118.52177 | 4623 ft | 258 kts | 230° |
| 2026-04-24 20:00 | 33.87697 | -118.53845 | 5329 ft | 261 kts | 231° |
| 2026-04-24 20:01 | 33.86420 | -118.55397 | 5920 ft | 265 kts | 213° |
| 2026-04-24 20:01 | 33.84628 | -118.56021 | 6442 ft | 277 kts | 179° |
| 2026-04-24 20:01 | 33.82724 | -118.55609 | 7028 ft | 280 kts | 168° |
| 2026-04-24 20:01 | 33.80812 | -118.55078 | 7673 ft | 283 kts | 171° |
| 2026-04-24 20:02 | 33.79516 | -118.54731 | 8166 ft | 283 kts | 170° |
| 2026-04-24 20:02 | 33.76960 | -118.54042 | 9122 ft | 286 kts | 170° |
| 2026-04-24 20:02 | 33.75012 | -118.53515 | 9820 ft | 288 kts | 170° |
| 2026-04-24 20:02 | 33.73035 | -118.52982 | 10354 ft | 296 kts | 171° |
| 2026-04-24 20:03 | 33.70992 | -118.52269 | 10457 ft | 317 kts | 156° |
| 2026-04-24 20:03 | 33.69257 | -118.50506 | 10595 ft | 345 kts | 127° |
| 2026-04-24 20:03 | 33.68239 | -118.47803 | 10743 ft | 365 kts | 109° |
| 2026-04-24 20:03 | 33.67490 | -118.44833 | 11147 ft | 377 kts | 109° |
| 2026-04-24 20:04 | 33.66667 | -118.41814 | 11723 ft | 384 kts | 111° |
| 2026-04-24 20:04 | 33.65784 | -118.38770 | 12415 ft | 388 kts | 112° |
| 2026-04-24 20:04 | 33.64886 | -118.35738 | 13098 ft | 391 kts | 111° |
| 2026-04-24 20:04 | 33.64262 | -118.32551 | 13507 ft | 400 kts | 94° |
| 2026-04-24 20:05 | 33.64360 | -118.29193 | 13900 ft | 407 kts | 87° |
| 2026-04-24 20:05 | 33.64478 | -118.25769 | 14399 ft | 413 kts | 90° |
| 2026-04-24 20:05 | 33.64509 | -118.22319 | 15003 ft | 412 kts | 88° |
| 2026-04-24 20:05 | 33.65078 | -118.18937 | 15331 ft | 420 kts | 65° |
| 2026-04-24 20:06 | 33.66047 | -118.16941 | 15634 ft | 422 kts | 50° |
| 2026-04-24 20:06 | 33.68146 | -118.14496 | 16216 ft | 417 kts | 33° |
| 2026-04-24 20:06 | 33.70503 | -118.12436 | 16664 ft | 422 kts | 32° |
| 2026-04-24 20:06 | 33.72887 | -118.10352 | 17027 ft | 425 kts | 32° |
| 2026-04-24 20:07 | 33.74469 | -118.08961 | 16983 ft | 427 kts | 32° |
| 2026-04-24 20:07 | 33.77705 | -118.06092 | 17532 ft | 433 kts | 32° |
| 2026-04-24 20:07 | 33.80130 | -118.03925 | 18179 ft | 434 kts | 32° |
| 2026-04-24 20:07 | 33.82562 | -118.01743 | 18682 ft | 437 kts | 32° |
| 2026-04-24 20:08 | 33.85008 | -117.99543 | 19139 ft | 442 kts | 32° |
| 2026-04-24 20:08 | 33.87452 | -117.97344 | 19601 ft | 446 kts | 32° |
| 2026-04-24 20:08 | 33.89946 | -117.95099 | 20057 ft | 449 kts | 32° |
| 2026-04-24 20:08 | 33.92454 | -117.92828 | 20509 ft | 453 kts | 32° |
| 2026-04-24 20:09 | 33.94981 | -117.90519 | 20931 ft | 457 kts | 31° |
| 2026-04-24 20:09 | 33.97521 | -117.88192 | 21362 ft | 461 kts | 31° |
| 2026-04-24 20:09 | 34.00084 | -117.85845 | 21816 ft | 464 kts | 31° |
| 2026-04-24 20:09 | 34.02665 | -117.83481 | 22251 ft | 467 kts | 31° |
| 2026-04-24 20:10 | 34.05268 | -117.81098 | 22655 ft | 471 kts | 31° |
| 2026-04-24 20:10 | 34.07892 | -117.78693 | 23073 ft | 475 kts | 31° |
| 2026-04-24 20:10 | 34.10370 | -117.76099 | 23421 ft | 485 kts | 41° |
| 2026-04-24 20:10 | 34.12564 | -117.72940 | 23713 ft | 494 kts | 47° |
| 2026-04-24 20:11 | 34.14659 | -117.69626 | 24048 ft | 498 kts | 48° |
| 2026-04-24 20:11 | 34.16767 | -117.66290 | 24440 ft | 500 kts | 47° |
| 2026-04-24 20:11 | 34.18912 | -117.62977 | 24846 ft | 501 kts | 46° |
| 2026-04-24 20:11 | 34.21104 | -117.59672 | 25141 ft | 505 kts | 46° |
| 2026-04-24 20:12 | 34.23324 | -117.56370 | 25471 ft | 508 kts | 46° |
| 2026-04-24 20:12 | 34.25559 | -117.53059 | 25853 ft | 509 kts | 46° |
| 2026-04-24 20:12 | 34.27768 | -117.49777 | 26179 ft | 511 kts | 46° |
| 2026-04-24 20:12 | 34.30025 | -117.46413 | 26471 ft | 515 kts | 46° |
| 2026-04-24 20:13 | 34.32286 | -117.43037 | 26803 ft | 518 kts | 46° |
| 2026-04-24 20:13 | 34.34558 | -117.39639 | 27162 ft | 520 kts | 46° |
| 2026-04-24 20:13 | 34.36835 | -117.36232 | 27500 ft | 522 kts | 46° |
| 2026-04-24 20:13 | 34.39127 | -117.32800 | 27817 ft | 525 kts | 46° |
| 2026-04-24 20:14 | 34.41432 | -117.29343 | 28113 ft | 528 kts | 46° |
| 2026-04-24 20:14 | 34.43745 | -117.25871 | 28426 ft | 531 kts | 46° |
| 2026-04-24 20:14 | 34.46073 | -117.22374 | 28763 ft | 533 kts | 46° |
| 2026-04-24 20:14 | 34.48409 | -117.18859 | 29074 ft | 536 kts | 47° |
| 2026-04-24 20:15 | 34.50719 | -117.15380 | 29342 ft | 539 kts | 46° |
| 2026-04-24 20:15 | 34.53083 | -117.11819 | 29592 ft | 543 kts | 46° |
| 2026-04-24 20:15 | 34.55467 | -117.08240 | 29847 ft | 546 kts | 46° |
| 2026-04-24 20:15 | 34.57894 | -117.04679 | 30027 ft | 550 kts | 45° |
| 2026-04-24 20:16 | 34.60360 | -117.01109 | 30267 ft | 552 kts | 45° |
| 2026-04-24 20:16 | 34.62833 | -116.97536 | 30548 ft | 552 kts | 45° |
| 2026-04-24 20:16 | 34.65305 | -116.93955 | 30760 ft | 555 kts | 45° |
| 2026-04-24 20:16 | 34.67787 | -116.90343 | 30952 ft | 558 kts | 45° |
| 2026-04-24 20:17 | 34.70282 | -116.86700 | 31128 ft | 561 kts | 46° |
| 2026-04-24 20:17 | 34.75283 | -116.79369 | 31554 ft | 564 kts | 46° |
| 2026-04-24 20:17 | 34.77786 | -116.75693 | 31872 ft | 563 kts | 46° |
| 2026-04-24 20:18 | 34.79440 | -116.73261 | 32108 ft | 562 kts | 46° |
| 2026-04-24 20:18 | 34.82769 | -116.68365 | 32586 ft | 560 kts | 46° |
| 2026-04-24 20:18 | 34.85257 | -116.64710 | 32802 ft | 562 kts | 46° |
| 2026-04-24 20:18 | 34.87788 | -116.61078 | 33015 ft | 562 kts | 44° |
| 2026-04-24 20:19 | 34.90397 | -116.57548 | 33309 ft | 560 kts | 42° |
| 2026-04-24 20:19 | 34.93052 | -116.54064 | 33570 ft | 560 kts | 41° |
| 2026-04-24 20:19 | 34.95679 | -116.50641 | 33854 ft | 559 kts | 41° |
| 2026-04-24 20:19 | 34.98336 | -116.47163 | 34115 ft | 559 kts | 42° |
| 2026-04-24 20:20 | 35.00966 | -116.43685 | 34399 ft | 557 kts | 42° |
| 2026-04-24 20:20 | 35.03577 | -116.40201 | 34704 ft | 555 kts | 43° |
| 2026-04-24 20:20 | 35.06181 | -116.36709 | 34829 ft | 558 kts | 43° |
| 2026-04-24 20:20 | 35.08803 | -116.33181 | 34869 ft | 560 kts | 43° |
| 2026-04-24 20:21 | 35.14011 | -116.26148 | 34858 ft | 555 kts | 43° |
| 2026-04-24 20:21 | 35.19167 | -116.19185 | 34853 ft | 550 kts | 43° |
| 2026-04-24 20:22 | 35.24270 | -116.12290 | 34917 ft | 550 kts | 43° |
| 2026-04-24 20:22 | 35.29404 | -116.05333 | 34899 ft | 551 kts | 43° |
| 2026-04-24 20:23 | 35.34558 | -115.98334 | 34901 ft | 554 kts | 43° |
| 2026-04-24 20:23 | 35.39720 | -115.91313 | 34906 ft | 556 kts | 43° |
| 2026-04-24 20:24 | 35.44901 | -115.84250 | 34913 ft | 557 kts | 43° |
| 2026-04-24 20:24 | 35.50058 | -115.77203 | 34898 ft | 558 kts | 43° |
| 2026-04-24 20:25 | 35.55234 | -115.70115 | 34905 ft | 558 kts | 43° |
| 2026-04-24 20:25 | 35.60410 | -115.63014 | 34910 ft | 557 kts | 43° |
| 2026-04-24 20:26 | 35.65585 | -115.55898 | 34900 ft | 557 kts | 43° |
| 2026-04-24 20:26 | 35.70750 | -115.48783 | 34910 ft | 556 kts | 43° |
| 2026-04-24 20:27 | 35.75893 | -115.41677 | 34899 ft | 555 kts | 43° |
| 2026-04-24 20:27 | 35.80983 | -115.34624 | 34907 ft | 554 kts | 43° |
| 2026-04-24 20:28 | 35.86101 | -115.27517 | 34905 ft | 554 kts | 43° |
| 2026-04-24 20:28 | 35.91226 | -115.20386 | 34910 ft | 555 kts | 43° |
| 2026-04-24 20:29 | 35.96337 | -115.13260 | 34896 ft | 555 kts | 43° |
| 2026-04-24 20:29 | 36.01444 | -115.06124 | 34897 ft | 555 kts | 43° |
| 2026-04-24 20:30 | 36.06555 | -114.98967 | 34862 ft | 554 kts | 43° |
| 2026-04-24 20:30 | 36.11653 | -114.91812 | 34817 ft | 555 kts | 43° |
| 2026-04-24 20:31 | 36.16751 | -114.84653 | 34815 ft | 553 kts | 42° |
| 2026-04-24 20:31 | 36.19533 | -114.81422 | 34794 ft | 541 kts | 27° |
| 2026-04-24 20:31 | 36.22687 | -114.79174 | 34852 ft | 527 kts | 18° |
| 2026-04-24 20:32 | 36.29301 | -114.75115 | 34817 ft | 535 kts | 18° |
| 2026-04-24 20:32 | 36.35952 | -114.70880 | 34772 ft | 538 kts | 20° |
| 2026-04-24 20:33 | 36.42568 | -114.66489 | 34798 ft | 539 kts | 20° |
| 2026-04-24 20:33 | 36.49167 | -114.62067 | 34833 ft | 539 kts | 21° |
| 2026-04-24 20:34 | 36.55715 | -114.57693 | 34799 ft | 529 kts | 21° |
| 2026-04-24 20:34 | 36.62154 | -114.53397 | 34788 ft | 528 kts | 21° |
| 2026-04-24 20:35 | 36.68625 | -114.49061 | 34809 ft | 529 kts | 21° |
| 2026-04-24 20:35 | 36.75026 | -114.44450 | 34836 ft | 533 kts | 25° |
| 2026-04-24 20:36 | 36.81322 | -114.39486 | 34818 ft | 535 kts | 26° |
| 2026-04-24 20:36 | 36.87607 | -114.34485 | 34818 ft | 535 kts | 26° |
| 2026-04-24 20:37 | 36.93885 | -114.29520 | 34810 ft | 534 kts | 26° |
| 2026-04-24 20:37 | 37.00121 | -114.24609 | 34828 ft | 531 kts | 26° |
| 2026-04-24 20:38 | 37.06371 | -114.19679 | 34833 ft | 530 kts | 26° |
| 2026-04-24 20:38 | 37.12595 | -114.14755 | 34832 ft | 528 kts | 26° |
| 2026-04-24 20:39 | 37.18802 | -114.09833 | 34840 ft | 526 kts | 26° |
| 2026-04-24 20:39 | 37.24976 | -114.04930 | 34845 ft | 524 kts | 26° |
| 2026-04-24 20:40 | 37.31135 | -114.00029 | 34855 ft | 523 kts | 27° |
| 2026-04-24 20:40 | 37.37233 | -113.95167 | 34848 ft | 521 kts | 27° |
| 2026-04-24 20:41 | 37.43355 | -113.90281 | 34846 ft | 521 kts | 27° |
| 2026-04-24 20:41 | 37.49477 | -113.85380 | 34849 ft | 520 kts | 27° |
| 2026-04-24 20:42 | 37.55586 | -113.80476 | 34877 ft | 521 kts | 27° |
| 2026-04-24 20:42 | 37.61705 | -113.75557 | 34856 ft | 520 kts | 27° |
| 2026-04-24 20:43 | 37.67809 | -113.70639 | 34837 ft | 520 kts | 27° |
| 2026-04-24 20:43 | 37.73873 | -113.65745 | 34834 ft | 519 kts | 27° |
| 2026-04-24 20:44 | 37.79953 | -113.60830 | 34815 ft | 519 kts | 27° |
| 2026-04-24 20:44 | 37.86041 | -113.55897 | 34815 ft | 519 kts | 27° |
| 2026-04-24 20:45 | 37.92119 | -113.50963 | 34806 ft | 518 kts | 27° |
| 2026-04-24 20:45 | 37.98312 | -113.46358 | 34790 ft | 514 kts | 24° |
| 2026-04-24 20:46 | 38.04586 | -113.41999 | 34796 ft | 514 kts | 23° |
| 2026-04-24 20:46 | 38.10860 | -113.37638 | 34802 ft | 514 kts | 24° |
| 2026-04-24 20:47 | 38.17086 | -113.33260 | 34794 ft | 515 kts | 24° |
| 2026-04-24 20:47 | 38.23341 | -113.28832 | 34822 ft | 514 kts | 24° |
| 2026-04-24 20:48 | 38.29602 | -113.24387 | 34845 ft | 514 kts | 24° |
| 2026-04-24 20:48 | 38.35851 | -113.19945 | 34869 ft | 514 kts | 24° |
| 2026-04-24 20:49 | 38.42105 | -113.15492 | 34889 ft | 514 kts | 24° |
| 2026-04-24 20:49 | 38.48357 | -113.11032 | 34899 ft | 514 kts | 24° |
| 2026-04-24 20:50 | 38.54606 | -113.06566 | 34889 ft | 514 kts | 24° |
| 2026-04-24 20:50 | 38.60806 | -113.02126 | 34870 ft | 514 kts | 24° |
| 2026-04-24 20:51 | 38.67050 | -112.97643 | 34836 ft | 513 kts | 24° |
| 2026-04-24 20:51 | 38.73265 | -112.93173 | 34781 ft | 512 kts | 24° |
| 2026-04-24 20:52 | 38.79469 | -112.88702 | 34770 ft | 511 kts | 24° |
| 2026-04-24 20:52 | 38.85656 | -112.84236 | 34796 ft | 510 kts | 24° |
| 2026-04-24 20:53 | 38.91841 | -112.79761 | 34775 ft | 510 kts | 24° |
| 2026-04-24 20:53 | 38.96970 | -112.76043 | 34779 ft | 509 kts | 24° |
| 2026-04-24 20:54 | 39.03152 | -112.71554 | 34778 ft | 509 kts | 24° |
| 2026-04-24 20:54 | 39.09331 | -112.67058 | 34800 ft | 509 kts | 24° |
| 2026-04-24 20:55 | 39.15503 | -112.62557 | 34784 ft | 510 kts | 24° |
| 2026-04-24 20:55 | 39.21678 | -112.58045 | 34786 ft | 510 kts | 24° |
| 2026-04-24 20:56 | 39.27844 | -112.53531 | 34789 ft | 509 kts | 24° |
| 2026-04-24 20:56 | 39.33966 | -112.49040 | 34813 ft | 510 kts | 24° |
| 2026-04-24 20:57 | 39.40174 | -112.44476 | 34813 ft | 510 kts | 24° |
| 2026-04-24 20:57 | 39.46311 | -112.39956 | 34802 ft | 511 kts | 24° |
| 2026-04-24 20:58 | 39.52486 | -112.35397 | 34796 ft | 511 kts | 24° |